sensor_id;sensor_type;location;lat;lon;timestamp;P1;durP1;ratioP1;P2;durP2;ratioP2
25913;SDS011;13718;50.922;5.346;2022-09-01T00:01:47;4.30;;;1.40;;
25913;SDS011;13718;50.922;5.346;2022-09-01T00:04:20;2.33;;;1.20;;
25913;SDS011;13718;50.922;5.346;2022-09-01T00:06:50;4.65;;;1.15;;
25913;SDS011;13718;50.922;5.346;2022-09-01T00:09:19;5.68;;;1.20;;
25913;SDS011;13718;50.922;5.346;2022-09-01T00:11:47;3.53;;;1.50;;
25913;SDS011;13718;50.922;5.346;2022-09-01T00:14:23;5.53;;;1.40;;
25913;SDS011;13718;50.922;5.346;2022-09-01T00:16:50;5.80;;;1.40;;
25913;SDS011;13718;50.922;5.346;2022-09-01T00:19:18;3.00;;;1.08;;
25913;SDS011;13718;50.922;5.346;2022-09-01T00:21:44;4.07;;;1.40;;
25913;SDS011;13718;50.922;5.346;2022-09-01T00:24:11;4.97;;;1.50;;
25913;SDS011;13718;50.922;5.346;2022-09-01T00:26:38;4.90;;;1.30;;
25913;SDS011;13718;50.922;5.346;2022-09-01T00:29:04;4.15;;;1.40;;
25913;SDS011;13718;50.922;5.346;2022-09-01T00:31:30;7.63;;;1.63;;
25913;SDS011;13718;50.922;5.346;2022-09-01T00:34:00;4.35;;;1.30;;
25913;SDS011;13718;50.922;5.346;2022-09-01T00:36:26;5.00;;;1.15;;
25913;SDS011;13718;50.922;5.346;2022-09-01T00:38:54;4.50;;;1.27;;
25913;SDS011;13718;50.922;5.346;2022-09-01T00:41:21;2.00;;;1.13;;
25913;SDS011;13718;50.922;5.346;2022-09-01T00:43:59;2.03;;;1.00;;
25913;SDS011;13718;50.922;5.346;2022-09-01T00:46:35;6.18;;;1.27;;
25913;SDS011;13718;50.922;5.346;2022-09-01T00:49:16;4.18;;;1.15;;
25913;SDS011;13718;50.922;5.346;2022-09-01T00:51:51;5.78;;;1.52;;
25913;SDS011;13718;50.922;5.346;2022-09-01T00:54:22;5.50;;;1.38;;
25913;SDS011;13718;50.922;5.346;2022-09-01T00:56:51;5.72;;;1.42;;
25913;SDS011;13718;50.922;5.346;2022-09-01T00:59:21;5.32;;;1.20;;
25913;SDS011;13718;50.922;5.346;2022-09-01T01:01:49;4.93;;;1.20;;
25913;SDS011;13718;50.922;5.346;2022-09-01T01:04:18;2.13;;;1.15;;
25913;SDS011;13718;50.922;5.346;2022-09-01T01:06:45;5.03;;;1.40;;
25913;SDS011;13718;50.922;5.346;2022-09-01T01:09:15;4.88;;;1.40;;
25913;SDS011;13718;50.922;5.346;2022-09-01T01:11:45;4.07;;;1.23;;
25913;SDS011;13718;50.922;5.346;2022-09-01T01:14:12;4.60;;;1.25;;
25913;SDS011;13718;50.922;5.346;2022-09-01T01:16:45;3.35;;;1.30;;
25913;SDS011;13718;50.922;5.346;2022-09-01T01:22:40;6.00;;;1.40;;
25913;SDS011;13718;50.922;5.346;2022-09-01T01:25:25;5.50;;;1.77;;
25913;SDS011;13718;50.922;5.346;2022-09-01T01:28:10;6.35;;;1.48;;
25913;SDS011;13718;50.922;5.346;2022-09-01T01:30:37;3.08;;;1.38;;
25913;SDS011;13718;50.922;5.346;2022-09-01T01:33:08;3.78;;;1.45;;
25913;SDS011;13718;50.922;5.346;2022-09-01T01:35:34;5.43;;;1.67;;
25913;SDS011;13718;50.922;5.346;2022-09-01T01:38:02;5.80;;;1.30;;
25913;SDS011;13718;50.922;5.346;2022-09-01T01:40:31;4.10;;;1.50;;
25913;SDS011;13718;50.922;5.346;2022-09-01T01:43:01;3.38;;;1.40;;
25913;SDS011;13718;50.922;5.346;2022-09-01T01:45:27;5.07;;;1.50;;
25913;SDS011;13718;50.922;5.346;2022-09-01T01:47:57;7.00;;;1.55;;
25913;SDS011;13718;50.922;5.346;2022-09-01T01:50:24;5.95;;;1.67;;
25913;SDS011;13718;50.922;5.346;2022-09-01T01:52:54;5.07;;;1.50;;
25913;SDS011;13718;50.922;5.346;2022-09-01T01:55:21;7.68;;;1.67;;
25913;SDS011;13718;50.922;5.346;2022-09-01T01:57:52;8.98;;;1.40;;
25913;SDS011;13718;50.922;5.346;2022-09-01T02:00:21;4.28;;;1.52;;
25913;SDS011;13718;50.922;5.346;2022-09-01T02:02:52;2.28;;;1.15;;
25913;SDS011;13718;50.922;5.346;2022-09-01T02:05:22;4.78;;;1.63;;
25913;SDS011;13718;50.922;5.346;2022-09-01T02:07:57;8.68;;;1.40;;
25913;SDS011;13718;50.922;5.346;2022-09-01T02:10:26;5.57;;;1.33;;
25913;SDS011;13718;50.922;5.346;2022-09-01T02:12:55;4.65;;;1.40;;
25913;SDS011;13718;50.922;5.346;2022-09-01T02:15:29;4.45;;;1.80;;
25913;SDS011;13718;50.922;5.346;2022-09-01T02:17:56;4.93;;;1.52;;
25913;SDS011;13718;50.922;5.346;2022-09-01T02:20:24;6.22;;;1.50;;
25913;SDS011;13718;50.922;5.346;2022-09-01T02:22:53;4.72;;;1.50;;
25913;SDS011;13718;50.922;5.346;2022-09-01T02:25:20;3.05;;;1.27;;
25913;SDS011;13718;50.922;5.346;2022-09-01T02:27:47;2.90;;;1.30;;
25913;SDS011;13718;50.922;5.346;2022-09-01T02:30:17;4.95;;;1.50;;
25913;SDS011;13718;50.922;5.346;2022-09-01T02:32:43;3.72;;;1.40;;
25913;SDS011;13718;50.922;5.346;2022-09-01T02:35:09;5.18;;;1.92;;
25913;SDS011;13718;50.922;5.346;2022-09-01T02:37:36;4.22;;;1.63;;
25913;SDS011;13718;50.922;5.346;2022-09-01T02:40:03;6.43;;;1.27;;
25913;SDS011;13718;50.922;5.346;2022-09-01T02:42:31;4.10;;;1.52;;
25913;SDS011;13718;50.922;5.346;2022-09-01T02:44:57;5.50;;;1.63;;
25913;SDS011;13718;50.922;5.346;2022-09-01T02:47:22;3.95;;;1.20;;
25913;SDS011;13718;50.922;5.346;2022-09-01T02:49:51;4.30;;;1.30;;
25913;SDS011;13718;50.922;5.346;2022-09-01T02:52:17;7.15;;;1.67;;
25913;SDS011;13718;50.922;5.346;2022-09-01T02:54:45;4.78;;;1.73;;
25913;SDS011;13718;50.922;5.346;2022-09-01T02:57:12;3.58;;;1.60;;
25913;SDS011;13718;50.922;5.346;2022-09-01T02:59:38;5.10;;;1.67;;
25913;SDS011;13718;50.922;5.346;2022-09-01T03:02:06;4.70;;;1.70;;
25913;SDS011;13718;50.922;5.346;2022-09-01T03:04:32;9.40;;;1.70;;
25913;SDS011;13718;50.922;5.346;2022-09-01T03:06:59;4.97;;;1.45;;
25913;SDS011;13718;50.922;5.346;2022-09-01T03:09:27;5.47;;;1.60;;
25913;SDS011;13718;50.922;5.346;2022-09-01T03:11:52;5.32;;;1.60;;
25913;SDS011;13718;50.922;5.346;2022-09-01T03:14:19;11.57;;;1.75;;
25913;SDS011;13718;50.922;5.346;2022-09-01T03:16:46;3.10;;;1.40;;
25913;SDS011;13718;50.922;5.346;2022-09-01T03:19:12;3.97;;;1.58;;
25913;SDS011;13718;50.922;5.346;2022-09-01T03:21:40;4.43;;;1.65;;
25913;SDS011;13718;50.922;5.346;2022-09-01T03:24:08;4.38;;;1.30;;
25913;SDS011;13718;50.922;5.346;2022-09-01T03:26:36;3.75;;;1.52;;
25913;SDS011;13718;50.922;5.346;2022-09-01T03:29:02;4.60;;;1.65;;
25913;SDS011;13718;50.922;5.346;2022-09-01T03:31:28;5.10;;;1.52;;
25913;SDS011;13718;50.922;5.346;2022-09-01T03:33:55;4.30;;;1.45;;
25913;SDS011;13718;50.922;5.346;2022-09-01T03:36:21;4.15;;;1.40;;
25913;SDS011;13718;50.922;5.346;2022-09-01T03:38:54;7.30;;;1.83;;
25913;SDS011;13718;50.922;5.346;2022-09-01T03:41:22;4.95;;;1.65;;
25913;SDS011;13718;50.922;5.346;2022-09-01T03:43:50;5.18;;;1.77;;
25913;SDS011;13718;50.922;5.346;2022-09-01T03:46:19;4.35;;;1.38;;
25913;SDS011;13718;50.922;5.346;2022-09-01T03:48:49;7.38;;;2.20;;
25913;SDS011;13718;50.922;5.346;2022-09-01T03:51:20;9.55;;;1.83;;
25913;SDS011;13718;50.922;5.346;2022-09-01T03:53:47;3.88;;;1.90;;
25913;SDS011;13718;50.922;5.346;2022-09-01T03:56:14;6.72;;;1.98;;
25913;SDS011;13718;50.922;5.346;2022-09-01T03:58:41;5.82;;;1.98;;
25913;SDS011;13718;50.922;5.346;2022-09-01T04:01:11;4.70;;;1.95;;
25913;SDS011;13718;50.922;5.346;2022-09-01T04:03:38;5.32;;;1.90;;
25913;SDS011;13718;50.922;5.346;2022-09-01T04:06:06;4.07;;;1.90;;
25913;SDS011;13718;50.922;5.346;2022-09-01T04:08:33;5.03;;;2.13;;
25913;SDS011;13718;50.922;5.346;2022-09-01T04:11:02;3.80;;;1.92;;
25913;SDS011;13718;50.922;5.346;2022-09-01T04:13:34;7.88;;;2.25;;
25913;SDS011;13718;50.922;5.346;2022-09-01T04:16:02;4.68;;;1.90;;
25913;SDS011;13718;50.922;5.346;2022-09-01T04:18:34;5.50;;;1.90;;
25913;SDS011;13718;50.922;5.346;2022-09-01T04:21:00;5.60;;;1.88;;
25913;SDS011;13718;50.922;5.346;2022-09-01T04:23:26;4.82;;;2.08;;
25913;SDS011;13718;50.922;5.346;2022-09-01T04:25:55;5.07;;;2.05;;
25913;SDS011;13718;50.922;5.346;2022-09-01T04:28:45;5.03;;;1.88;;
25913;SDS011;13718;50.922;5.346;2022-09-01T04:31:20;4.07;;;2.05;;
25913;SDS011;13718;50.922;5.346;2022-09-01T04:33:46;5.20;;;2.05;;
25913;SDS011;13718;50.922;5.346;2022-09-01T04:38:54;8.90;;;2.00;;
25913;SDS011;13718;50.922;5.346;2022-09-01T04:41:22;10.07;;;2.17;;
25913;SDS011;13718;50.922;5.346;2022-09-01T04:43:50;6.15;;;2.58;;
25913;SDS011;13718;50.922;5.346;2022-09-01T04:46:17;6.38;;;2.42;;
25913;SDS011;13718;50.922;5.346;2022-09-01T04:48:45;6.47;;;2.40;;
25913;SDS011;13718;50.922;5.346;2022-09-01T04:51:11;7.40;;;2.30;;
25913;SDS011;13718;50.922;5.346;2022-09-01T04:53:39;5.30;;;2.33;;
25913;SDS011;13718;50.922;5.346;2022-09-01T04:56:12;4.05;;;2.10;;
25913;SDS011;13718;50.922;5.346;2022-09-01T04:58:39;6.65;;;2.38;;
25913;SDS011;13718;50.922;5.346;2022-09-01T05:01:12;8.75;;;2.47;;
25913;SDS011;13718;50.922;5.346;2022-09-01T05:03:39;11.35;;;2.90;;
25913;SDS011;13718;50.922;5.346;2022-09-01T05:06:11;4.38;;;2.40;;
25913;SDS011;13718;50.922;5.346;2022-09-01T05:08:37;9.45;;;2.90;;
25913;SDS011;13718;50.922;5.346;2022-09-01T05:11:04;5.88;;;2.40;;
25913;SDS011;13718;50.922;5.346;2022-09-01T05:13:31;5.85;;;2.60;;
25913;SDS011;13718;50.922;5.346;2022-09-01T05:16:03;5.03;;;2.70;;
25913;SDS011;13718;50.922;5.346;2022-09-01T05:18:30;6.82;;;2.78;;
25913;SDS011;13718;50.922;5.346;2022-09-01T05:20:56;6.85;;;2.75;;
25913;SDS011;13718;50.922;5.346;2022-09-01T05:23:22;7.22;;;3.17;;
25913;SDS011;13718;50.922;5.346;2022-09-01T05:25:50;10.75;;;3.28;;
25913;SDS011;13718;50.922;5.346;2022-09-01T05:28:19;7.10;;;3.03;;
25913;SDS011;13718;50.922;5.346;2022-09-01T05:30:48;5.50;;;3.17;;
25913;SDS011;13718;50.922;5.346;2022-09-01T05:33:18;9.73;;;3.17;;
25913;SDS011;13718;50.922;5.346;2022-09-01T05:35:56;9.32;;;3.10;;
25913;SDS011;13718;50.922;5.346;2022-09-01T05:38:25;7.63;;;3.10;;
25913;SDS011;13718;50.922;5.346;2022-09-01T05:40:55;6.22;;;3.45;;
25913;SDS011;13718;50.922;5.346;2022-09-01T05:43:23;8.00;;;3.28;;
25913;SDS011;13718;50.922;5.346;2022-09-01T05:45:51;9.60;;;3.85;;
25913;SDS011;13718;50.922;5.346;2022-09-01T05:48:18;8.70;;;3.20;;
25913;SDS011;13718;50.922;5.346;2022-09-01T05:50:44;12.98;;;3.72;;
25913;SDS011;13718;50.922;5.346;2022-09-01T05:53:11;9.00;;;3.33;;
25913;SDS011;13718;50.922;5.346;2022-09-01T05:55:43;7.72;;;3.40;;
25913;SDS011;13718;50.922;5.346;2022-09-01T05:58:11;7.38;;;3.33;;
25913;SDS011;13718;50.922;5.346;2022-09-01T06:00:42;10.35;;;3.45;;
25913;SDS011;13718;50.922;5.346;2022-09-01T06:05:38;6.25;;;3.03;;
25913;SDS011;13718;50.922;5.346;2022-09-01T06:08:05;9.90;;;3.65;;
25913;SDS011;13718;50.922;5.346;2022-09-01T06:10:35;6.82;;;3.40;;
25913;SDS011;13718;50.922;5.346;2022-09-01T06:13:04;7.22;;;3.38;;
25913;SDS011;13718;50.922;5.346;2022-09-01T06:15:30;12.40;;;3.40;;
25913;SDS011;13718;50.922;5.346;2022-09-01T06:17:56;9.98;;;3.80;;
25913;SDS011;13718;50.922;5.346;2022-09-01T06:20:23;12.55;;;3.42;;
25913;SDS011;13718;50.922;5.346;2022-09-01T06:22:49;8.27;;;3.45;;
25913;SDS011;13718;50.922;5.346;2022-09-01T06:25:17;13.75;;;3.75;;
25913;SDS011;13718;50.922;5.346;2022-09-01T06:27:44;8.52;;;3.67;;
25913;SDS011;13718;50.922;5.346;2022-09-01T06:30:12;9.23;;;4.05;;
25913;SDS011;13718;50.922;5.346;2022-09-01T06:32:41;10.85;;;4.43;;
25913;SDS011;13718;50.922;5.346;2022-09-01T06:35:08;7.47;;;4.20;;
25913;SDS011;13718;50.922;5.346;2022-09-01T06:37:39;11.02;;;4.22;;
25913;SDS011;13718;50.922;5.346;2022-09-01T06:40:08;14.18;;;4.85;;
25913;SDS011;13718;50.922;5.346;2022-09-01T06:42:41;11.73;;;4.10;;
25913;SDS011;13718;50.922;5.346;2022-09-01T06:45:15;8.48;;;3.90;;
25913;SDS011;13718;50.922;5.346;2022-09-01T06:47:42;7.25;;;3.35;;
25913;SDS011;13718;50.922;5.346;2022-09-01T06:50:10;8.50;;;3.60;;
25913;SDS011;13718;50.922;5.346;2022-09-01T06:52:39;7.55;;;3.92;;
25913;SDS011;13718;50.922;5.346;2022-09-01T06:55:08;6.28;;;3.65;;
25913;SDS011;13718;50.922;5.346;2022-09-01T06:57:35;8.38;;;3.83;;
25913;SDS011;13718;50.922;5.346;2022-09-01T07:00:03;10.85;;;3.70;;
25913;SDS011;13718;50.922;5.346;2022-09-01T07:02:31;8.73;;;3.50;;
25913;SDS011;13718;50.922;5.346;2022-09-01T07:04:57;8.02;;;3.63;;
25913;SDS011;13718;50.922;5.346;2022-09-01T07:07:23;8.82;;;3.80;;
25913;SDS011;13718;50.922;5.346;2022-09-01T07:09:51;9.68;;;3.67;;
25913;SDS011;13718;50.922;5.346;2022-09-01T07:12:17;8.13;;;3.60;;
25913;SDS011;13718;50.922;5.346;2022-09-01T07:14:43;6.32;;;3.38;;
25913;SDS011;13718;50.922;5.346;2022-09-01T07:17:11;6.97;;;3.38;;
25913;SDS011;13718;50.922;5.346;2022-09-01T07:19:40;5.57;;;3.00;;
25913;SDS011;13718;50.922;5.346;2022-09-01T07:22:06;7.03;;;3.10;;
25913;SDS011;13718;50.922;5.346;2022-09-01T07:24:31;7.22;;;3.17;;
25913;SDS011;13718;50.922;5.346;2022-09-01T07:26:57;7.57;;;3.42;;
25913;SDS011;13718;50.922;5.346;2022-09-01T07:29:22;9.55;;;2.83;;
25913;SDS011;13718;50.922;5.346;2022-09-01T07:31:49;7.10;;;3.05;;
25913;SDS011;13718;50.922;5.346;2022-09-01T07:34:19;9.65;;;3.05;;
25913;SDS011;13718;50.922;5.346;2022-09-01T07:36:45;7.65;;;2.80;;
25913;SDS011;13718;50.922;5.346;2022-09-01T07:39:11;6.22;;;2.75;;
25913;SDS011;13718;50.922;5.346;2022-09-01T07:41:38;11.15;;;2.90;;
25913;SDS011;13718;50.922;5.346;2022-09-01T07:44:06;6.68;;;2.85;;
25913;SDS011;13718;50.922;5.346;2022-09-01T07:46:36;9.63;;;2.97;;
25913;SDS011;13718;50.922;5.346;2022-09-01T07:49:02;8.30;;;2.90;;
25913;SDS011;13718;50.922;5.346;2022-09-01T07:51:28;7.30;;;2.78;;
25913;SDS011;13718;50.922;5.346;2022-09-01T07:53:55;6.07;;;2.63;;
25913;SDS011;13718;50.922;5.346;2022-09-01T07:56:22;4.70;;;2.50;;
25913;SDS011;13718;50.922;5.346;2022-09-01T07:58:49;5.25;;;2.40;;
25913;SDS011;13718;50.922;5.346;2022-09-01T08:01:17;7.65;;;2.33;;
25913;SDS011;13718;50.922;5.346;2022-09-01T08:03:45;9.40;;;2.53;;
25913;SDS011;13718;50.922;5.346;2022-09-01T08:06:14;10.48;;;2.50;;
25913;SDS011;13718;50.922;5.346;2022-09-01T08:08:44;7.45;;;2.55;;
25913;SDS011;13718;50.922;5.346;2022-09-01T08:11:16;8.38;;;2.55;;
25913;SDS011;13718;50.922;5.346;2022-09-01T08:13:43;13.48;;;2.38;;
25913;SDS011;13718;50.922;5.346;2022-09-01T08:16:09;7.40;;;2.17;;
25913;SDS011;13718;50.922;5.346;2022-09-01T08:18:36;10.73;;;2.55;;
25913;SDS011;13718;50.922;5.346;2022-09-01T08:21:08;10.32;;;2.55;;
25913;SDS011;13718;50.922;5.346;2022-09-01T08:23:35;7.60;;;2.65;;
25913;SDS011;13718;50.922;5.346;2022-09-01T08:26:12;12.57;;;2.58;;
25913;SDS011;13718;50.922;5.346;2022-09-01T08:28:39;4.75;;;2.35;;
25913;SDS011;13718;50.922;5.346;2022-09-01T08:31:09;7.05;;;2.58;;
25913;SDS011;13718;50.922;5.346;2022-09-01T08:33:37;6.63;;;2.42;;
25913;SDS011;13718;50.922;5.346;2022-09-01T08:36:06;5.93;;;3.30;;
25913;SDS011;13718;50.922;5.346;2022-09-01T08:38:33;12.18;;;3.22;;
25913;SDS011;13718;50.922;5.346;2022-09-01T08:40:58;7.90;;;3.03;;
25913;SDS011;13718;50.922;5.346;2022-09-01T08:43:41;5.82;;;2.88;;
25913;SDS011;13718;50.922;5.346;2022-09-01T08:46:28;5.43;;;2.78;;
25913;SDS011;13718;50.922;5.346;2022-09-01T08:48:59;5.65;;;2.67;;
25913;SDS011;13718;50.922;5.346;2022-09-01T08:51:47;5.55;;;2.65;;
25913;SDS011;13718;50.922;5.346;2022-09-01T08:54:20;6.57;;;2.60;;
25913;SDS011;13718;50.922;5.346;2022-09-01T08:57:00;6.18;;;2.55;;
25913;SDS011;13718;50.922;5.346;2022-09-01T08:59:29;7.47;;;2.22;;
25913;SDS011;13718;50.922;5.346;2022-09-01T09:01:58;7.32;;;2.55;;
25913;SDS011;13718;50.922;5.346;2022-09-01T09:04:57;6.75;;;2.00;;
25913;SDS011;13718;50.922;5.346;2022-09-01T09:10:30;7.60;;;2.10;;
25913;SDS011;13718;50.922;5.346;2022-09-01T09:15:54;5.28;;;2.10;;
25913;SDS011;13718;50.922;5.346;2022-09-01T09:18:28;4.35;;;2.28;;
25913;SDS011;13718;50.922;5.346;2022-09-01T09:23:45;5.60;;;2.00;;
25913;SDS011;13718;50.922;5.346;2022-09-01T09:26:15;5.65;;;1.60;;
25913;SDS011;13718;50.922;5.346;2022-09-01T09:28:42;3.83;;;1.60;;
25913;SDS011;13718;50.922;5.346;2022-09-01T09:33:54;10.27;;;1.85;;
25913;SDS011;13718;50.922;5.346;2022-09-01T09:36:22;8.40;;;2.28;;
25913;SDS011;13718;50.922;5.346;2022-09-01T09:39:13;3.72;;;1.67;;
25913;SDS011;13718;50.922;5.346;2022-09-01T09:41:41;4.32;;;1.52;;
25913;SDS011;13718;50.922;5.346;2022-09-01T09:46:54;3.03;;;1.67;;
25913;SDS011;13718;50.922;5.346;2022-09-01T09:54:39;5.88;;;2.13;;
25913;SDS011;13718;50.922;5.346;2022-09-01T09:57:21;4.10;;;2.10;;
25913;SDS011;13718;50.922;5.346;2022-09-01T10:04:53;5.03;;;1.50;;
25913;SDS011;13718;50.922;5.346;2022-09-01T10:10:05;16.40;;;2.05;;
25913;SDS011;13718;50.922;5.346;2022-09-01T10:12:48;6.25;;;1.90;;
25913;SDS011;13718;50.922;5.346;2022-09-01T10:15:15;3.20;;;1.90;;
25913;SDS011;13718;50.922;5.346;2022-09-01T10:17:46;6.35;;;1.90;;
25913;SDS011;13718;50.922;5.346;2022-09-01T10:20:18;5.20;;;1.77;;
25913;SDS011;13718;50.922;5.346;2022-09-01T10:22:47;4.18;;;1.90;;
25913;SDS011;13718;50.922;5.346;2022-09-01T10:25:18;7.00;;;1.60;;
25913;SDS011;13718;50.922;5.346;2022-09-01T10:27:48;3.58;;;1.70;;
25913;SDS011;13718;50.922;5.346;2022-09-01T10:30:17;4.32;;;1.80;;
25913;SDS011;13718;50.922;5.346;2022-09-01T10:32:46;6.50;;;1.65;;
25913;SDS011;13718;50.922;5.346;2022-09-01T10:35:26;4.78;;;1.60;;
25913;SDS011;13718;50.922;5.346;2022-09-01T10:37:54;8.70;;;2.25;;
25913;SDS011;13718;50.922;5.346;2022-09-01T10:42:55;3.70;;;1.50;;
25913;SDS011;13718;50.922;5.346;2022-09-01T10:45:33;4.30;;;1.40;;
25913;SDS011;13718;50.922;5.346;2022-09-01T10:50:47;6.07;;;1.50;;
25913;SDS011;13718;50.922;5.346;2022-09-01T10:56:04;2.38;;;1.10;;
25913;SDS011;13718;50.922;5.346;2022-09-01T11:01:10;2.38;;;1.30;;
25913;SDS011;13718;50.922;5.346;2022-09-01T11:03:37;6.03;;;1.20;;
25913;SDS011;13718;50.922;5.346;2022-09-01T11:06:29;2.72;;;1.17;;
25913;SDS011;13718;50.922;5.346;2022-09-01T11:08:57;3.80;;;1.70;;
25913;SDS011;13718;50.922;5.346;2022-09-01T11:11:30;6.47;;;1.10;;
25913;SDS011;13718;50.922;5.346;2022-09-01T11:14:02;5.10;;;1.27;;
25913;SDS011;13718;50.922;5.346;2022-09-01T11:16:37;5.70;;;1.30;;
25913;SDS011;13718;50.922;5.346;2022-09-01T11:27:04;11.27;;;1.83;;
25913;SDS011;13718;50.922;5.346;2022-09-01T11:32:21;3.13;;;0.82;;
25913;SDS011;13718;50.922;5.346;2022-09-01T11:34:51;2.65;;;1.20;;
25913;SDS011;13718;50.922;5.346;2022-09-01T11:37:20;3.10;;;1.40;;
25913;SDS011;13718;50.922;5.346;2022-09-01T11:39:48;4.72;;;1.08;;
25913;SDS011;13718;50.922;5.346;2022-09-01T11:42:30;2.67;;;1.33;;
25913;SDS011;13718;50.922;5.346;2022-09-01T11:45:10;2.55;;;1.20;;
25913;SDS011;13718;50.922;5.346;2022-09-01T11:47:49;2.97;;;1.13;;
25913;SDS011;13718;50.922;5.346;2022-09-01T11:50:22;4.72;;;1.30;;
25913;SDS011;13718;50.922;5.346;2022-09-01T11:53:05;3.17;;;1.15;;
25913;SDS011;13718;50.922;5.346;2022-09-01T11:55:37;10.20;;;1.60;;
25913;SDS011;13718;50.922;5.346;2022-09-01T11:58:05;6.50;;;1.40;;
25913;SDS011;13718;50.922;5.346;2022-09-01T12:00:36;1.85;;;1.00;;
25913;SDS011;13718;50.922;5.346;2022-09-01T12:03:20;3.55;;;1.10;;
25913;SDS011;13718;50.922;5.346;2022-09-01T12:05:52;2.67;;;0.95;;
25913;SDS011;13718;50.922;5.346;2022-09-01T12:08:26;3.15;;;1.25;;
25913;SDS011;13718;50.922;5.346;2022-09-01T12:13:31;5.85;;;1.30;;
25913;SDS011;13718;50.922;5.346;2022-09-01T12:16:04;1.67;;;1.08;;
25913;SDS011;13718;50.922;5.346;2022-09-01T12:18:33;6.72;;;1.58;;
25913;SDS011;13718;50.922;5.346;2022-09-01T12:21:03;4.07;;;1.40;;
25913;SDS011;13718;50.922;5.346;2022-09-01T12:23:36;1.55;;;0.90;;
25913;SDS011;13718;50.922;5.346;2022-09-01T12:28:40;3.28;;;0.98;;
25913;SDS011;13718;50.922;5.346;2022-09-01T12:31:07;3.08;;;1.30;;
25913;SDS011;13718;50.922;5.346;2022-09-01T12:33:56;6.75;;;1.13;;
25913;SDS011;13718;50.922;5.346;2022-09-01T12:38:56;2.67;;;1.20;;
25913;SDS011;13718;50.922;5.346;2022-09-01T12:41:42;2.50;;;1.10;;
25913;SDS011;13718;50.922;5.346;2022-09-01T12:46:57;4.75;;;1.10;;
25913;SDS011;13718;50.922;5.346;2022-09-01T12:49:32;1.85;;;1.10;;
25913;SDS011;13718;50.922;5.346;2022-09-01T12:57:30;2.40;;;1.10;;
25913;SDS011;13718;50.922;5.346;2022-09-01T13:05:27;4.80;;;1.10;;
25913;SDS011;13718;50.922;5.346;2022-09-01T13:08:06;2.33;;;1.17;;
25913;SDS011;13718;50.922;5.346;2022-09-01T13:10:34;4.15;;;1.27;;
25913;SDS011;13718;50.922;5.346;2022-09-01T13:13:02;4.45;;;1.23;;
25913;SDS011;13718;50.922;5.346;2022-09-01T13:15:29;2.95;;;1.05;;
25913;SDS011;13718;50.922;5.346;2022-09-01T13:17:55;5.65;;;1.30;;
25913;SDS011;13718;50.922;5.346;2022-09-01T13:20:21;4.38;;;1.30;;
25913;SDS011;13718;50.922;5.346;2022-09-01T13:22:47;5.28;;;1.33;;
25913;SDS011;13718;50.922;5.346;2022-09-01T13:25:14;7.28;;;1.33;;
25913;SDS011;13718;50.922;5.346;2022-09-01T13:27:42;4.78;;;1.33;;
25913;SDS011;13718;50.922;5.346;2022-09-01T13:30:11;3.75;;;1.50;;
25913;SDS011;13718;50.922;5.346;2022-09-01T13:32:42;13.53;;;1.80;;
25913;SDS011;13718;50.922;5.346;2022-09-01T13:35:09;5.47;;;1.48;;
25913;SDS011;13718;50.922;5.346;2022-09-01T13:37:36;3.00;;;1.15;;
25913;SDS011;13718;50.922;5.346;2022-09-01T13:40:03;1.80;;;1.10;;
25913;SDS011;13718;50.922;5.346;2022-09-01T13:42:31;2.95;;;1.20;;
25913;SDS011;13718;50.922;5.346;2022-09-01T13:44:56;2.90;;;1.20;;
25913;SDS011;13718;50.922;5.346;2022-09-01T13:47:22;2.97;;;1.10;;
25913;SDS011;13718;50.922;5.346;2022-09-01T13:49:48;2.92;;;1.40;;
25913;SDS011;13718;50.922;5.346;2022-09-01T13:52:14;2.95;;;1.33;;
25913;SDS011;13718;50.922;5.346;2022-09-01T13:54:39;3.45;;;1.20;;
25913;SDS011;13718;50.922;5.346;2022-09-01T13:57:05;2.53;;;1.00;;
25913;SDS011;13718;50.922;5.346;2022-09-01T13:59:31;3.25;;;1.20;;
25913;SDS011;13718;50.922;5.346;2022-09-01T14:01:57;4.25;;;1.15;;
25913;SDS011;13718;50.922;5.346;2022-09-01T14:04:22;3.22;;;1.00;;
25913;SDS011;13718;50.922;5.346;2022-09-01T14:06:48;2.13;;;1.10;;
25913;SDS011;13718;50.922;5.346;2022-09-01T14:09:14;3.58;;;0.98;;
25913;SDS011;13718;50.922;5.346;2022-09-01T14:11:40;4.93;;;1.50;;
25913;SDS011;13718;50.922;5.346;2022-09-01T14:14:06;4.13;;;1.10;;
25913;SDS011;13718;50.922;5.346;2022-09-01T14:16:32;4.15;;;1.10;;
25913;SDS011;13718;50.922;5.346;2022-09-01T14:18:57;2.67;;;1.20;;
25913;SDS011;13718;50.922;5.346;2022-09-01T14:21:26;6.88;;;1.20;;
25913;SDS011;13718;50.922;5.346;2022-09-01T14:23:52;5.90;;;1.20;;
25913;SDS011;13718;50.922;5.346;2022-09-01T14:26:18;3.20;;;1.27;;
25913;SDS011;13718;50.922;5.346;2022-09-01T14:28:44;3.03;;;1.15;;
25913;SDS011;13718;50.922;5.346;2022-09-01T14:31:13;2.30;;;1.10;;
25913;SDS011;13718;50.922;5.346;2022-09-01T14:33:40;5.18;;;1.13;;
25913;SDS011;13718;50.922;5.346;2022-09-01T14:36:07;2.78;;;1.20;;
25913;SDS011;13718;50.922;5.346;2022-09-01T14:38:40;8.25;;;2.03;;
25913;SDS011;13718;50.922;5.346;2022-09-01T14:41:05;3.53;;;1.63;;
25913;SDS011;13718;50.922;5.346;2022-09-01T14:43:31;6.57;;;1.42;;
25913;SDS011;13718;50.922;5.346;2022-09-01T14:46:03;2.50;;;1.30;;
25913;SDS011;13718;50.922;5.346;2022-09-01T14:48:31;1.63;;;1.15;;
25913;SDS011;13718;50.922;5.346;2022-09-01T14:50:58;3.10;;;1.17;;
25913;SDS011;13718;50.922;5.346;2022-09-01T14:53:25;3.78;;;1.38;;
25913;SDS011;13718;50.922;5.346;2022-09-01T14:55:53;4.15;;;1.45;;
25913;SDS011;13718;50.922;5.346;2022-09-01T14:58:20;3.22;;;1.30;;
25913;SDS011;13718;50.922;5.346;2022-09-01T15:00:45;8.38;;;1.70;;
25913;SDS011;13718;50.922;5.346;2022-09-01T15:03:11;3.38;;;1.80;;
25913;SDS011;13718;50.922;5.346;2022-09-01T15:05:37;3.50;;;1.30;;
25913;SDS011;13718;50.922;5.346;2022-09-01T15:08:03;2.50;;;1.50;;
25913;SDS011;13718;50.922;5.346;2022-09-01T15:10:30;3.90;;;1.52;;
25913;SDS011;13718;50.922;5.346;2022-09-01T15:12:56;5.03;;;1.60;;
25913;SDS011;13718;50.922;5.346;2022-09-01T15:15:23;3.72;;;1.63;;
25913;SDS011;13718;50.922;5.346;2022-09-01T15:17:50;3.42;;;1.13;;
25913;SDS011;13718;50.922;5.346;2022-09-01T15:20:16;3.95;;;1.30;;
25913;SDS011;13718;50.922;5.346;2022-09-01T15:23:00;2.70;;;1.38;;
25913;SDS011;13718;50.922;5.346;2022-09-01T15:25:26;3.83;;;1.50;;
25913;SDS011;13718;50.922;5.346;2022-09-01T15:27:52;3.55;;;1.30;;
25913;SDS011;13718;50.922;5.346;2022-09-01T15:30:17;3.88;;;1.33;;
25913;SDS011;13718;50.922;5.346;2022-09-01T15:32:46;3.67;;;1.35;;
25913;SDS011;13718;50.922;5.346;2022-09-01T15:35:13;3.28;;;1.45;;
25913;SDS011;13718;50.922;5.346;2022-09-01T15:37:40;7.25;;;1.50;;
25913;SDS011;13718;50.922;5.346;2022-09-01T15:40:06;4.63;;;1.27;;
25913;SDS011;13718;50.922;5.346;2022-09-01T15:42:33;3.85;;;1.50;;
25913;SDS011;13718;50.922;5.346;2022-09-01T15:45:04;4.63;;;1.88;;
25913;SDS011;13718;50.922;5.346;2022-09-01T15:47:38;2.10;;;1.50;;
25913;SDS011;13718;50.922;5.346;2022-09-01T15:50:05;4.38;;;1.80;;
25913;SDS011;13718;50.922;5.346;2022-09-01T15:52:32;5.43;;;1.30;;
25913;SDS011;13718;50.922;5.346;2022-09-01T15:54:58;2.47;;;1.60;;
25913;SDS011;13718;50.922;5.346;2022-09-01T15:57:24;7.15;;;2.13;;
25913;SDS011;13718;50.922;5.346;2022-09-01T15:59:51;2.50;;;1.88;;
25913;SDS011;13718;50.922;5.346;2022-09-01T16:02:16;7.22;;;1.90;;
25913;SDS011;13718;50.922;5.346;2022-09-01T16:04:45;3.55;;;1.95;;
25913;SDS011;13718;50.922;5.346;2022-09-01T16:07:11;3.97;;;1.60;;
25913;SDS011;13718;50.922;5.346;2022-09-01T16:09:37;3.40;;;1.50;;
25913;SDS011;13718;50.922;5.346;2022-09-01T16:12:02;3.17;;;1.27;;
25913;SDS011;13718;50.922;5.346;2022-09-01T16:14:30;2.38;;;1.42;;
25913;SDS011;13718;50.922;5.346;2022-09-01T16:17:10;4.25;;;1.63;;